sensor_id;sensor_type;location;lat;lon;timestamp;temperature;humidity
24632;DHT22;59977;48.782;9.190;2023-04-01T00:00:55;10.10;99.90
24632;DHT22;59977;48.782;9.190;2023-04-01T00:03:22;10.10;99.90
24632;DHT22;59977;48.782;9.190;2023-04-01T00:05:48;10.10;99.90
24632;DHT22;59977;48.782;9.190;2023-04-01T00:08:14;10.10;99.90
24632;DHT22;59977;48.782;9.190;2023-04-01T00:10:40;10.10;99.90
24632;DHT22;59977;48.782;9.190;2023-04-01T00:13:06;11.40;99.90
24632;DHT22;59977;48.782;9.190;2023-04-01T00:15:32;10.10;99.90
24632;DHT22;59977;48.782;9.190;2023-04-01T00:17:58;10.10;99.90
24632;DHT22;59977;48.782;9.190;2023-04-01T00:20:24;10.80;99.90
24632;DHT22;59977;48.782;9.190;2023-04-01T00:22:50;10.20;99.90
24632;DHT22;59977;48.782;9.190;2023-04-01T00:25:16;10.20;99.90
24632;DHT22;59977;48.782;9.190;2023-04-01T00:27:42;10.20;99.90
24632;DHT22;59977;48.782;9.190;2023-04-01T00:30:08;10.20;99.90
24632;DHT22;59977;48.782;9.190;2023-04-01T00:32:34;10.20;99.90
24632;DHT22;59977;48.782;9.190;2023-04-01T00:35:00;10.20;99.90
24632;DHT22;59977;48.782;9.190;2023-04-01T00:37:27;11.00;99.90
24632;DHT22;59977;48.782;9.190;2023-04-01T00:39:53;10.20;99.90
24632;DHT22;59977;48.782;9.190;2023-04-01T00:42:19;10.20;99.90
24632;DHT22;59977;48.782;9.190;2023-04-01T00:44:53;10.20;99.90
24632;DHT22;59977;48.782;9.190;2023-04-01T00:47:19;10.20;99.90
24632;DHT22;59977;48.782;9.190;2023-04-01T00:49:47;10.20;99.90
24632;DHT22;59977;48.782;9.190;2023-04-01T00:52:17;10.20;99.90
24632;DHT22;59977;48.782;9.190;2023-04-01T00:54:46;10.30;99.90
24632;DHT22;59977;48.782;9.190;2023-04-01T00:57:17;10.30;99.90
24632;DHT22;59977;48.782;9.190;2023-04-01T00:59:46;10.30;99.90
24632;DHT22;59977;48.782;9.190;2023-04-01T01:02:15;10.30;99.90
24632;DHT22;59977;48.782;9.190;2023-04-01T01:04:41;10.30;99.90
24632;DHT22;59977;48.782;9.190;2023-04-01T01:12:44;10.30;99.90
24632;DHT22;59977;48.782;9.190;2023-04-01T01:15:30;10.30;99.90
24632;DHT22;59977;48.782;9.190;2023-04-01T01:18:16;10.30;99.90
24632;DHT22;59977;48.782;9.190;2023-04-01T01:24:13;10.30;99.90
24632;DHT22;59977;48.782;9.190;2023-04-01T01:26:39;10.30;99.90
24632;DHT22;59977;48.782;9.190;2023-04-01T01:37:08;10.30;99.90
24632;DHT22;59977;48.782;9.190;2023-04-01T01:39:36;10.30;99.90
24632;DHT22;59977;48.782;9.190;2023-04-01T01:42:04;10.30;99.90
24632;DHT22;59977;48.782;9.190;2023-04-01T01:44:32;10.30;99.90
24632;DHT22;59977;48.782;9.190;2023-04-01T01:46:59;10.30;99.90
24632;DHT22;59977;48.782;9.190;2023-04-01T01:49:27;10.40;99.90
24632;DHT22;59977;48.782;9.190;2023-04-01T01:51:56;10.30;99.90
24632;DHT22;59977;48.782;9.190;2023-04-01T01:54:22;10.30;99.90
24632;DHT22;59977;48.782;9.190;2023-04-01T01:56:51;10.30;99.90
24632;DHT22;59977;48.782;9.190;2023-04-01T01:59:20;10.30;99.90
24632;DHT22;59977;48.782;9.190;2023-04-01T02:01:49;10.20;99.90
24632;DHT22;59977;48.782;9.190;2023-04-01T02:04:17;10.20;99.90
24632;DHT22;59977;48.782;9.190;2023-04-01T02:06:53;10.20;99.90
24632;DHT22;59977;48.782;9.190;2023-04-01T02:09:20;10.20;99.90
24632;DHT22;59977;48.782;9.190;2023-04-01T02:11:52;10.20;99.90
24632;DHT22;59977;48.782;9.190;2023-04-01T02:14:27;10.20;99.90
24632;DHT22;59977;48.782;9.190;2023-04-01T02:17:00;10.20;99.90
24632;DHT22;59977;48.782;9.190;2023-04-01T02:20:04;10.20;99.90
24632;DHT22;59977;48.782;9.190;2023-04-01T02:22:34;10.20;99.90
24632;DHT22;59977;48.782;9.190;2023-04-01T02:25:06;10.30;99.90
24632;DHT22;59977;48.782;9.190;2023-04-01T02:27:32;10.20;99.90
24632;DHT22;59977;48.782;9.190;2023-04-01T02:29:58;10.20;99.90
24632;DHT22;59977;48.782;9.190;2023-04-01T02:32:24;10.20;99.90
24632;DHT22;59977;48.782;9.190;2023-04-01T02:34:51;10.10;99.90
24632;DHT22;59977;48.782;9.190;2023-04-01T02:37:17;10.10;99.90
24632;DHT22;59977;48.782;9.190;2023-04-01T02:39:43;10.10;99.90
24632;DHT22;59977;48.782;9.190;2023-04-01T02:42:09;10.80;99.90
24632;DHT22;59977;48.782;9.190;2023-04-01T02:44:35;10.10;99.90
24632;DHT22;59977;48.782;9.190;2023-04-01T02:47:00;10.10;99.90
24632;DHT22;59977;48.782;9.190;2023-04-01T02:49:26;10.90;99.90
24632;DHT22;59977;48.782;9.190;2023-04-01T02:51:52;10.00;99.90
24632;DHT22;59977;48.782;9.190;2023-04-01T02:54:18;9.90;99.90
24632;DHT22;59977;48.782;9.190;2023-04-01T02:56:44;10.10;99.90
24632;DHT22;59977;48.782;9.190;2023-04-01T02:59:10;9.90;99.90
24632;DHT22;59977;48.782;9.190;2023-04-01T03:01:36;9.90;99.90
24632;DHT22;59977;48.782;9.190;2023-04-01T03:04:02;9.90;99.90
24632;DHT22;59977;48.782;9.190;2023-04-01T03:06:27;11.10;99.90
24632;DHT22;59977;48.782;9.190;2023-04-01T03:08:53;9.90;99.90
24632;DHT22;59977;48.782;9.190;2023-04-01T03:11:18;9.90;99.90
24632;DHT22;59977;48.782;9.190;2023-04-01T03:13:45;9.90;99.90
24632;DHT22;59977;48.782;9.190;2023-04-01T03:16:10;9.90;99.90
24632;DHT22;59977;48.782;9.190;2023-04-01T03:18:36;9.90;99.90
24632;DHT22;59977;48.782;9.190;2023-04-01T03:21:19;9.90;99.90
24632;DHT22;59977;48.782;9.190;2023-04-01T03:23:45;9.90;99.90
24632;DHT22;59977;48.782;9.190;2023-04-01T03:26:11;9.90;99.90
24632;DHT22;59977;48.782;9.190;2023-04-01T03:28:37;9.80;99.90
24632;DHT22;59977;48.782;9.190;2023-04-01T03:31:03;9.80;99.90
24632;DHT22;59977;48.782;9.190;2023-04-01T03:33:29;9.70;99.90
24632;DHT22;59977;48.782;9.190;2023-04-01T03:35:55;9.70;99.90
24632;DHT22;59977;48.782;9.190;2023-04-01T03:38:20;9.80;99.90
24632;DHT22;59977;48.782;9.190;2023-04-01T03:40:46;9.80;99.90
24632;DHT22;59977;48.782;9.190;2023-04-01T03:43:12;9.80;99.90
24632;DHT22;59977;48.782;9.190;2023-04-01T03:45:48;9.80;99.90
24632;DHT22;59977;48.782;9.190;2023-04-01T03:48:14;12.20;99.90
24632;DHT22;59977;48.782;9.190;2023-04-01T03:50:40;9.80;99.90
24632;DHT22;59977;48.782;9.190;2023-04-01T03:53:06;9.90;99.90
24632;DHT22;59977;48.782;9.190;2023-04-01T03:55:32;9.80;99.90
24632;DHT22;59977;48.782;9.190;2023-04-01T03:57:57;9.80;99.90
24632;DHT22;59977;48.782;9.190;2023-04-01T04:00:23;9.80;99.90
24632;DHT22;59977;48.782;9.190;2023-04-01T04:02:49;9.80;99.90
24632;DHT22;59977;48.782;9.190;2023-04-01T04:05:14;9.80;99.90
24632;DHT22;59977;48.782;9.190;2023-04-01T04:07:40;9.70;99.90
24632;DHT22;59977;48.782;9.190;2023-04-01T04:10:06;9.70;99.90
24632;DHT22;59977;48.782;9.190;2023-04-01T04:12:32;9.70;99.90
24632;DHT22;59977;48.782;9.190;2023-04-01T04:14:58;9.70;99.90
24632;DHT22;59977;48.782;9.190;2023-04-01T04:17:23;9.70;99.90
24632;DHT22;59977;48.782;9.190;2023-04-01T04:19:49;9.70;99.90
24632;DHT22;59977;48.782;9.190;2023-04-01T04:22:14;9.80;99.90
24632;DHT22;59977;48.782;9.190;2023-04-01T04:24:40;9.70;99.90
24632;DHT22;59977;48.782;9.190;2023-04-01T04:27:06;9.70;99.90
24632;DHT22;59977;48.782;9.190;2023-04-01T04:29:31;9.60;99.90
24632;DHT22;59977;48.782;9.190;2023-04-01T04:31:57;9.60;99.90
24632;DHT22;59977;48.782;9.190;2023-04-01T04:34:22;9.60;99.90
24632;DHT22;59977;48.782;9.190;2023-04-01T04:36:48;9.50;99.90
24632;DHT22;59977;48.782;9.190;2023-04-01T04:39:15;9.50;99.90
24632;DHT22;59977;48.782;9.190;2023-04-01T04:41:41;9.50;99.90
24632;DHT22;59977;48.782;9.190;2023-04-01T04:44:07;9.80;99.90
24632;DHT22;59977;48.782;9.190;2023-04-01T04:46:32;9.40;99.90
24632;DHT22;59977;48.782;9.190;2023-04-01T04:48:58;9.50;99.90
24632;DHT22;59977;48.782;9.190;2023-04-01T04:51:24;9.50;99.90
24632;DHT22;59977;48.782;9.190;2023-04-01T04:53:50;9.40;99.90
24632;DHT22;59977;48.782;9.190;2023-04-01T04:56:20;10.60;99.90
24632;DHT22;59977;48.782;9.190;2023-04-01T04:58:46;9.40;99.90
24632;DHT22;59977;48.782;9.190;2023-04-01T05:01:15;9.40;99.90
24632;DHT22;59977;48.782;9.190;2023-04-01T05:03:41;9.40;99.90
24632;DHT22;59977;48.782;9.190;2023-04-01T05:06:09;9.50;99.90
24632;DHT22;59977;48.782;9.190;2023-04-01T05:08:35;9.40;99.90
24632;DHT22;59977;48.782;9.190;2023-04-01T05:11:02;9.40;99.90
24632;DHT22;59977;48.782;9.190;2023-04-01T05:13:28;9.40;99.90
24632;DHT22;59977;48.782;9.190;2023-04-01T05:15:54;9.40;99.90
24632;DHT22;59977;48.782;9.190;2023-04-01T05:18:21;9.40;99.90
24632;DHT22;59977;48.782;9.190;2023-04-01T05:20:52;9.40;99.90
24632;DHT22;59977;48.782;9.190;2023-04-01T05:23:18;10.20;99.90
24632;DHT22;59977;48.782;9.190;2023-04-01T05:25:46;10.00;99.90
24632;DHT22;59977;48.782;9.190;2023-04-01T05:28:12;9.40;99.90
24632;DHT22;59977;48.782;9.190;2023-04-01T05:30:40;9.50;99.90
24632;DHT22;59977;48.782;9.190;2023-04-01T05:33:07;9.50;99.90
24632;DHT22;59977;48.782;9.190;2023-04-01T05:35:33;9.50;99.90
24632;DHT22;59977;48.782;9.190;2023-04-01T05:37:58;9.50;99.90
24632;DHT22;59977;48.782;9.190;2023-04-01T05:40:24;9.60;99.90
24632;DHT22;59977;48.782;9.190;2023-04-01T05:42:50;9.60;99.90
24632;DHT22;59977;48.782;9.190;2023-04-01T05:45:15;9.60;99.90
24632;DHT22;59977;48.782;9.190;2023-04-01T05:47:41;9.60;99.90
24632;DHT22;59977;48.782;9.190;2023-04-01T05:50:09;9.70;99.90
24632;DHT22;59977;48.782;9.190;2023-04-01T05:52:36;9.70;99.90
24632;DHT22;59977;48.782;9.190;2023-04-01T05:55:02;9.70;99.90
24632;DHT22;59977;48.782;9.190;2023-04-01T05:57:27;9.80;99.90
24632;DHT22;59977;48.782;9.190;2023-04-01T05:59:53;9.80;99.90
24632;DHT22;59977;48.782;9.190;2023-04-01T06:02:18;9.80;99.90
24632;DHT22;59977;48.782;9.190;2023-04-01T06:04:44;9.80;99.90
24632;DHT22;59977;48.782;9.190;2023-04-01T06:07:15;9.90;99.90
24632;DHT22;59977;48.782;9.190;2023-04-01T06:09:41;9.90;99.90
24632;DHT22;59977;48.782;9.190;2023-04-01T06:15:11;9.90;99.90
24632;DHT22;59977;48.782;9.190;2023-04-01T06:25:42;10.10;99.90
24632;DHT22;59977;48.782;9.190;2023-04-01T06:48:34;10.30;99.90
24632;DHT22;59977;48.782;9.190;2023-04-01T06:54:05;10.40;99.90
24632;DHT22;59977;48.782;9.190;2023-04-01T06:56:33;10.40;99.90
24632;DHT22;59977;48.782;9.190;2023-04-01T06:59:17;10.40;99.90
24632;DHT22;59977;48.782;9.190;2023-04-01T07:01:45;10.40;99.90
24632;DHT22;59977;48.782;9.190;2023-04-01T07:04:26;10.40;99.90
24632;DHT22;59977;48.782;9.190;2023-04-01T07:07:19;10.50;99.90
24632;DHT22;59977;48.782;9.190;2023-04-01T07:09:52;10.50;99.90
24632;DHT22;59977;48.782;9.190;2023-04-01T07:14:54;10.50;99.90
24632;DHT22;59977;48.782;9.190;2023-04-01T07:22:27;10.60;99.90
24632;DHT22;59977;48.782;9.190;2023-04-01T07:24:54;10.60;99.90
24632;DHT22;59977;48.782;9.190;2023-04-01T07:27:20;10.60;99.90
24632;DHT22;59977;48.782;9.190;2023-04-01T07:29:46;10.60;99.90
24632;DHT22;59977;48.782;9.190;2023-04-01T07:35:49;10.60;99.90
24632;DHT22;59977;48.782;9.190;2023-04-01T07:38:40;10.60;99.90
24632;DHT22;59977;48.782;9.190;2023-04-01T07:41:13;10.60;99.90
24632;DHT22;59977;48.782;9.190;2023-04-01T07:44:07;10.70;99.90
24632;DHT22;59977;48.782;9.190;2023-04-01T07:55:20;10.70;99.90
24632;DHT22;59977;48.782;9.190;2023-04-01T08:00:39;10.90;99.90
24632;DHT22;59977;48.782;9.190;2023-04-01T08:05:55;11.00;99.90
24632;DHT22;59977;48.782;9.190;2023-04-01T08:11:25;11.00;99.90
24632;DHT22;59977;48.782;9.190;2023-04-01T08:21:47;13.50;99.90
24632;DHT22;59977;48.782;9.190;2023-04-01T08:24:45;11.20;99.90
24632;DHT22;59977;48.782;9.190;2023-04-01T08:27:46;11.20;99.90
24632;DHT22;59977;48.782;9.190;2023-04-01T08:30:19;11.20;99.90
24632;DHT22;59977;48.782;9.190;2023-04-01T08:35:56;11.20;99.90
24632;DHT22;59977;48.782;9.190;2023-04-01T08:38:29;11.20;99.90
24632;DHT22;59977;48.782;9.190;2023-04-01T08:40:57;11.20;99.90
24632;DHT22;59977;48.782;9.190;2023-04-01T08:49:00;11.10;99.90
24632;DHT22;59977;48.782;9.190;2023-04-01T08:54:54;10.80;99.90
24632;DHT22;59977;48.782;9.190;2023-04-01T08:57:28;10.70;99.90
24632;DHT22;59977;48.782;9.190;2023-04-01T09:06:01;10.60;99.90
24632;DHT22;59977;48.782;9.190;2023-04-01T09:16:36;10.70;99.90
24632;DHT22;59977;48.782;9.190;2023-04-01T09:19:30;10.90;99.90
24632;DHT22;59977;48.782;9.190;2023-04-01T09:24:35;10.90;99.90
24632;DHT22;59977;48.782;9.190;2023-04-01T09:27:09;10.90;99.90
24632;DHT22;59977;48.782;9.190;2023-04-01T09:41:27;11.50;99.90
24632;DHT22;59977;48.782;9.190;2023-04-01T09:44:01;11.50;99.90
24632;DHT22;59977;48.782;9.190;2023-04-01T09:58:10;11.20;99.90
24632;DHT22;59977;48.782;9.190;2023-04-01T10:40:38;11.80;99.90
24632;DHT22;59977;48.782;9.190;2023-04-01T10:46:28;11.80;99.90
24632;DHT22;59977;48.782;9.190;2023-04-01T11:12:29;11.90;99.90
24632;DHT22;59977;48.782;9.190;2023-04-01T11:20:56;12.10;99.90
24632;DHT22;59977;48.782;9.190;2023-04-01T11:31:43;12.40;99.90
24632;DHT22;59977;48.782;9.190;2023-04-01T11:34:32;12.50;99.90
24632;DHT22;59977;48.782;9.190;2023-04-01T11:40:03;13.00;99.90
24632;DHT22;59977;48.782;9.190;2023-04-01T11:45:39;13.00;99.90
24632;DHT22;59977;48.782;9.190;2023-04-01T11:48:22;12.90;99.90
24632;DHT22;59977;48.782;9.190;2023-04-01T12:01:46;12.80;99.90
24632;DHT22;59977;48.782;9.190;2023-04-01T12:07:44;12.70;99.90
24632;DHT22;59977;48.782;9.190;2023-04-01T12:10:20;12.60;99.90
24632;DHT22;59977;48.782;9.190;2023-04-01T12:13:02;12.60;99.90
24632;DHT22;59977;48.782;9.190;2023-04-01T12:18:16;12.50;99.90
24632;DHT22;59977;48.782;9.190;2023-04-01T12:42:55;12.90;99.90
24632;DHT22;59977;48.782;9.190;2023-04-01T12:45:32;12.90;99.90
24632;DHT22;59977;48.782;9.190;2023-04-01T12:48:14;12.80;99.90
24632;DHT22;59977;48.782;9.190;2023-04-01T12:51:15;12.80;99.90
24632;DHT22;59977;48.782;9.190;2023-04-01T13:00:09;13.10;99.90
24632;DHT22;59977;48.782;9.190;2023-04-01T13:10:17;13.00;99.90
24632;DHT22;59977;48.782;9.190;2023-04-01T13:12:58;12.90;99.90
24632;DHT22;59977;48.782;9.190;2023-04-01T13:15:26;12.80;99.90
24632;DHT22;59977;48.782;9.190;2023-04-01T13:18:10;12.80;99.90
24632;DHT22;59977;48.782;9.190;2023-04-01T13:28:26;12.70;99.90
24632;DHT22;59977;48.782;9.190;2023-04-01T13:30:59;12.70;99.90
24632;DHT22;59977;48.782;9.190;2023-04-01T13:36:16;12.80;99.90
24632;DHT22;59977;48.782;9.190;2023-04-01T13:44:18;12.70;99.90
24632;DHT22;59977;48.782;9.190;2023-04-01T13:47:12;12.80;99.90
24632;DHT22;59977;48.782;9.190;2023-04-01T13:49:59;12.80;99.90
24632;DHT22;59977;48.782;9.190;2023-04-01T14:06:16;12.90;99.90
24632;DHT22;59977;48.782;9.190;2023-04-01T14:14:31;12.90;99.90
24632;DHT22;59977;48.782;9.190;2023-04-01T14:17:12;12.90;99.90
24632;DHT22;59977;48.782;9.190;2023-04-01T14:22:52;12.70;99.90
24632;DHT22;59977;48.782;9.190;2023-04-01T14:25:45;12.70;99.90
24632;DHT22;59977;48.782;9.190;2023-04-01T14:28:30;12.60;99.90
24632;DHT22;59977;48.782;9.190;2023-04-01T14:48:38;12.20;99.90
24632;DHT22;59977;48.782;9.190;2023-04-01T14:51:15;12.20;99.90
24632;DHT22;59977;48.782;9.190;2023-04-01T14:53:52;13.20;99.90
24632;DHT22;59977;48.782;9.190;2023-04-01T14:56:47;12.40;99.90
24632;DHT22;59977;48.782;9.190;2023-04-01T15:01:53;12.50;99.90
24632;DHT22;59977;48.782;9.190;2023-04-01T15:18:36;12.40;99.90
24632;DHT22;59977;48.782;9.190;2023-04-01T15:21:14;12.40;99.90
24632;DHT22;59977;48.782;9.190;2023-04-01T15:54:45;12.30;99.90
24632;DHT22;59977;48.782;9.190;2023-04-01T16:05:33;14.70;99.90
24632;DHT22;59977;48.782;9.190;2023-04-01T16:10:58;12.20;99.90
24632;DHT22;59977;48.782;9.190;2023-04-01T16:18:51;12.20;99.90
24632;DHT22;59977;48.782;9.190;2023-04-01T16:21:40;12.10;99.90
24632;DHT22;59977;48.782;9.190;2023-04-01T16:27:44;13.50;99.90
24632;DHT22;59977;48.782;9.190;2023-04-01T16:30:55;12.00;99.90
24632;DHT22;59977;48.782;9.190;2023-04-01T16:34:02;12.00;99.90
24632;DHT22;59977;48.782;9.190;2023-04-01T16:36:48;12.00;99.90
24632;DHT22;59977;48.782;9.190;2023-04-01T16:45:01;11.90;99.90
24632;DHT22;59977;48.782;9.190;2023-04-01T16:47:35;13.20;99.90
24632;DHT22;59977;48.782;9.190;2023-04-01T16:50:19;11.90;99.90
24632;DHT22;59977;48.782;9.190;2023-04-01T16:58:09;11.90;99.90
24632;DHT22;59977;48.782;9.190;2023-04-01T17:00:45;11.90;99.90
24632;DHT22;59977;48.782;9.190;2023-04-01T17:03:18;11.90;99.90
24632;DHT22;59977;48.782;9.190;2023-04-01T17:11:19;11.90;99.90
24632;DHT22;59977;48.782;9.190;2023-04-01T17:16:55;12.00;99.90
24632;DHT22;59977;48.782;9.190;2023-04-01T17:19:30;11.90;99.90
24632;DHT22;59977;48.782;9.190;2023-04-01T17:27:54;11.90;99.90
24632;DHT22;59977;48.782;9.190;2023-04-01T17:30:58;12.00;99.90
24632;DHT22;59977;48.782;9.190;2023-04-01T17:33:59;11.90;99.90
24632;DHT22;59977;48.782;9.190;2023-04-01T17:36:36;11.80;99.90
24632;DHT22;59977;48.782;9.190;2023-04-01T17:39:28;11.70;99.90
24632;DHT22;59977;48.782;9.190;2023-04-01T17:44:51;11.80;99.90
24632;DHT22;59977;48.782;9.190;2023-04-01T17:53:36;11.70;99.90
24632;DHT22;59977;48.782;9.190;2023-04-01T18:01:21;11.70;99.90
24632;DHT22;59977;48.782;9.190;2023-04-01T18:17:27;11.40;99.90
24632;DHT22;59977;48.782;9.190;2023-04-01T18:23:02;11.50;99.90
24632;DHT22;59977;48.782;9.190;2023-04-01T18:25:38;10.80;99.90
24632;DHT22;59977;48.782;9.190;2023-04-01T18:33:03;11.40;99.90
24632;DHT22;59977;48.782;9.190;2023-04-01T18:53:23;11.30;99.90
24632;DHT22;59977;48.782;9.190;2023-04-01T18:55:57;11.30;99.90
24632;DHT22;59977;48.782;9.190;2023-04-01T19:01:23;11.00;99.90
24632;DHT22;59977;48.782;9.190;2023-04-01T19:06:55;10.80;99.90
24632;DHT22;59977;48.782;9.190;2023-04-01T19:09:29;10.80;99.90
24632;DHT22;59977;48.782;9.190;2023-04-01T19:14:58;10.70;99.90
24632;DHT22;59977;48.782;9.190;2023-04-01T19:18:34;10.60;99.90
24632;DHT22;59977;48.782;9.190;2023-04-01T19:20:47;10.70;99.90
24632;DHT22;59977;48.782;9.190;2023-04-01T19:26:28;10.60;99.90
24632;DHT22;59977;48.782;9.190;2023-04-01T19:29:02;10.60;99.90
24632;DHT22;59977;48.782;9.190;2023-04-01T19:34:22;10.50;99.90
24632;DHT22;59977;48.782;9.190;2023-04-01T19:36:56;10.50;99.90
24632;DHT22;59977;48.782;9.190;2023-04-01T19:39:39;10.60;99.90
24632;DHT22;59977;48.782;9.190;2023-04-01T19:47:48;10.60;99.90
24632;DHT22;59977;48.782;9.190;2023-04-01T19:50:46;10.50;99.90
24632;DHT22;59977;48.782;9.190;2023-04-01T19:53:25;10.50;99.90
24632;DHT22;59977;48.782;9.190;2023-04-01T19:56:17;10.50;99.90
24632;DHT22;59977;48.782;9.190;2023-04-01T20:01:15;10.50;99.90
24632;DHT22;59977;48.782;9.190;2023-04-01T20:14:49;10.60;99.90
24632;DHT22;59977;48.782;9.190;2023-04-01T20:36:21;10.70;99.90
24632;DHT22;59977;48.782;9.190;2023-04-01T20:44:28;10.60;99.90
24632;DHT22;59977;48.782;9.190;2023-04-01T20:50:24;10.60;99.90
24632;DHT22;59977;48.782;9.190;2023-04-01T21:01:39;10.60;99.90
24632;DHT22;59977;48.782;9.190;2023-04-01T21:19:49;10.40;99.90
24632;DHT22;59977;48.782;9.190;2023-04-01T21:38:47;10.50;99.90
24632;DHT22;59977;48.782;9.190;2023-04-01T21:41:41;10.50;99.90
24632;DHT22;59977;48.782;9.190;2023-04-01T21:55:52;10.40;99.90
24632;DHT22;59977;48.782;9.190;2023-04-01T22:04:56;10.30;99.90
24632;DHT22;59977;48.782;9.190;2023-04-01T22:07:37;10.30;99.90
24632;DHT22;59977;48.782;9.190;2023-04-01T22:13:06;10.30;99.90
24632;DHT22;59977;48.782;9.190;2023-04-01T22:18:33;10.30;99.90
24632;DHT22;59977;48.782;9.190;2023-04-01T22:21:21;10.30;99.90
24632;DHT22;59977;48.782;9.190;2023-04-01T22:32:43;10.30;99.90
24632;DHT22;59977;48.782;9.190;2023-04-01T22:43:56;10.30;99.90
24632;DHT22;59977;48.782;9.190;2023-04-01T22:46:49;10.30;99.90
24632;DHT22;59977;48.782;9.190;2023-04-01T22:54:58;9.60;99.90
24632;DHT22;59977;48.782;9.190;2023-04-01T22:57:51;10.30;99.90
24632;DHT22;59977;48.782;9.190;2023-04-01T23:00:27;9.10;99.90
24632;DHT22;59977;48.782;9.190;2023-04-01T23:05:39;10.30;99.90
24632;DHT22;59977;48.782;9.190;2023-04-01T23:11:02;10.30;99.90
24632;DHT22;59977;48.782;9.190;2023-04-01T23:13:34;10.40;99.90
24632;DHT22;59977;48.782;9.190;2023-04-01T23:16:03;10.30;99.90
24632;DHT22;59977;48.782;9.190;2023-04-01T23:18:50;10.30;99.90
24632;DHT22;59977;48.782;9.190;2023-04-01T23:24:15;10.30;99.90
24632;DHT22;59977;48.782;9.190;2023-04-01T23:29:29;10.20;99.90
24632;DHT22;59977;48.782;9.190;2023-04-01T23:32:00;10.30;99.90
24632;DHT22;59977;48.782;9.190;2023-04-01T23:34:34;10.30;99.90
24632;DHT22;59977;48.782;9.190;2023-04-01T23:37:13;10.20;99.90
24632;DHT22;59977;48.782;9.190;2023-04-01T23:39:47;10.20;99.90
24632;DHT22;59977;48.782;9.190;2023-04-01T23:42:30;10.20;99.90
24632;DHT22;59977;48.782;9.190;2023-04-01T23:44:58;10.20;99.90
24632;DHT22;59977;48.782;9.190;2023-04-01T23:47:36;11.20;99.90
24632;DHT22;59977;48.782;9.190;2023-04-01T23:50:18;10.20;99.90
24632;DHT22;59977;48.782;9.190;2023-04-01T23:52:53;10.20;99.90
24632;DHT22;59977;48.782;9.190;2023-04-01T23:55:27;10.10;99.90
